createdAt,value
2023-04-03T00:01:21.946Z,1.90
2023-04-03T00:03:49.164Z,1.90
2023-04-03T00:08:43.733Z,1.70
2023-04-03T00:11:11.595Z,1.60
2023-04-03T00:13:40.426Z,1.60
2023-04-03T00:16:10.367Z,2.10
2023-04-03T00:18:39.193Z,1.60
2023-04-03T00:21:07.375Z,1.60
2023-04-03T00:23:35.516Z,1.60
2023-04-03T00:26:03.008Z,1.60
2023-04-03T00:28:30.088Z,1.60
2023-04-03T00:30:57.118Z,1.60
2023-04-03T00:33:25.433Z,1.60
2023-04-03T00:35:53.357Z,1.60
2023-04-03T00:38:20.578Z,1.60
2023-04-03T00:40:50.045Z,1.60
2023-04-03T00:43:27.242Z,1.60
2023-04-03T00:45:59.822Z,1.50
2023-04-03T00:48:47.263Z,1.50
2023-04-03T00:51:23.708Z,1.50
2023-04-03T00:54:00.669Z,1.40
2023-04-03T00:56:30.820Z,1.40
2023-04-03T00:59:13.373Z,1.30
2023-04-03T01:01:46.411Z,1.40
2023-04-03T01:04:44.217Z,1.40
2023-04-03T01:07:29.793Z,1.40
2023-04-03T01:10:08.522Z,1.40
2023-04-03T01:12:40.728Z,1.50
2023-04-03T01:15:27.315Z,1.50
2023-04-03T01:17:58.255Z,1.50
2023-04-03T01:20:35.907Z,1.50
2023-04-03T01:23:14.713Z,1.50
2023-04-03T01:25:51.477Z,1.50
2023-04-03T01:28:45.444Z,1.40
2023-04-03T01:33:49.727Z,1.40
2023-04-03T01:36:23.302Z,1.30
2023-04-03T01:38:50.870Z,1.30
2023-04-03T01:41:18.862Z,1.20
2023-04-03T01:43:49.149Z,1.20
2023-04-03T01:46:18.687Z,1.10
2023-04-03T01:48:45.854Z,1.10
2023-04-03T01:53:40.857Z,1.00
2023-04-03T01:58:35.857Z,0.90
2023-04-03T02:03:31.786Z,0.80
2023-04-03T02:08:27.087Z,0.70
2023-04-03T02:10:54.243Z,0.60
2023-04-03T02:13:21.526Z,0.60
2023-04-03T02:15:48.785Z,0.50
2023-04-03T02:20:45.427Z,0.40
2023-04-03T02:23:12.551Z,0.40
2023-04-03T02:25:39.594Z,0.30
2023-04-03T02:28:07.246Z,0.30
2023-04-03T02:30:34.606Z,0.30
2023-04-03T02:33:01.902Z,0.30
2023-04-03T02:35:29.054Z,0.20
2023-04-03T02:40:25.813Z,0.10
2023-04-03T02:42:55.902Z,0.00
2023-04-03T02:45:24.845Z,-0.10
2023-04-03T02:47:51.845Z,-0.10
2023-04-03T02:50:18.884Z,-0.10
2023-04-03T02:52:45.960Z,0.00
2023-04-03T02:55:16.809Z,0.00
2023-04-03T02:57:45.420Z,0.00
2023-04-03T03:00:15.314Z,0.00
2023-04-03T03:02:42.730Z,0.00
2023-04-03T03:05:10.084Z,0.00
2023-04-03T03:10:05.455Z,0.00
2023-04-03T03:12:33.385Z,-0.10
2023-04-03T03:15:00.806Z,-0.10
2023-04-03T03:17:28.043Z,-0.20
2023-04-03T03:19:55.060Z,-0.20
2023-04-03T03:22:22.089Z,-0.20
2023-04-03T03:24:49.106Z,-0.20
2023-04-03T03:27:17.151Z,-0.20
2023-04-03T03:32:13.638Z,-0.10
2023-04-03T03:34:40.861Z,-0.20
2023-04-03T03:42:03.042Z,-0.10
2023-04-03T03:46:58.506Z,-0.10
2023-04-03T03:51:53.336Z,-0.10
2023-04-03T03:59:15.680Z,0.00
2023-04-03T04:01:42.841Z,0.10
2023-04-03T04:06:38.099Z,0.30
2023-04-03T04:11:37.145Z,0.40
2023-04-03T04:14:04.277Z,0.40
2023-04-03T04:16:31.975Z,0.40
2023-04-03T04:19:05.161Z,0.50
2023-04-03T04:21:33.962Z,0.60
2023-04-03T04:28:56.268Z,0.80
2023-04-03T04:31:23.530Z,0.90
2023-04-03T04:38:47.829Z,0.90
2023-04-03T04:43:44.944Z,0.90
2023-04-03T04:46:15.098Z,0.90
2023-04-03T04:48:47.257Z,0.90
2023-04-03T04:51:16.684Z,1.00
2023-04-03T04:56:14.158Z,1.00
2023-04-03T05:01:11.691Z,1.00
2023-04-03T05:03:52.996Z,1.00
2023-04-03T05:06:23.274Z,1.00
2023-04-03T05:08:50.555Z,1.00
2023-04-03T05:13:47.620Z,1.10
2023-04-03T05:16:14.707Z,1.10
2023-04-03T05:18:41.748Z,1.20
2023-04-03T05:23:41.021Z,1.20
2023-04-03T05:26:08.337Z,1.30
2023-04-03T05:28:36.174Z,1.30
2023-04-03T05:31:03.625Z,1.30
2023-04-03T05:36:07.714Z,1.40
2023-04-03T05:38:40.236Z,1.30
2023-04-03T05:41:07.818Z,1.40
2023-04-03T05:48:42.414Z,1.50
2023-04-03T05:51:22.951Z,1.60
2023-04-03T05:54:12.165Z,1.60
2023-04-03T05:56:39.597Z,1.60
2023-04-03T05:59:06.809Z,1.70
2023-04-03T06:01:35.043Z,1.70
2023-04-03T06:06:57.919Z,1.80
2023-04-03T06:09:32.121Z,1.80
2023-04-03T06:12:00.006Z,1.90
2023-04-03T06:16:57.132Z,2.00
2023-04-03T06:19:24.577Z,2.00
2023-04-03T06:24:26.079Z,2.10
2023-04-03T06:26:54.045Z,2.20
2023-04-03T06:29:22.076Z,2.20
2023-04-03T06:31:50.096Z,2.20
2023-04-03T06:34:18.822Z,2.20
2023-04-03T06:36:46.322Z,2.30
2023-04-03T06:39:21.233Z,2.40
2023-04-03T06:46:46.489Z,2.60
2023-04-03T06:49:14.043Z,2.60
2023-04-03T06:51:41.103Z,2.60
2023-04-03T06:54:09.162Z,2.70
2023-04-03T06:59:04.279Z,2.60
2023-04-03T07:01:32.349Z,2.70
2023-04-03T07:03:59.471Z,2.80
2023-04-03T07:06:29.433Z,2.90
2023-04-03T07:08:56.824Z,3.00
2023-04-03T07:13:52.032Z,3.00
2023-04-03T07:16:19.592Z,3.10
2023-04-03T07:18:47.476Z,3.30
2023-04-03T07:21:14.822Z,3.30
2023-04-03T07:23:41.874Z,3.20
2023-04-03T07:26:10.025Z,3.20
2023-04-03T07:28:39.443Z,3.30
2023-04-03T07:31:14.180Z,3.30
2023-04-03T07:33:42.611Z,3.40
2023-04-03T07:36:11.704Z,3.50
2023-04-03T07:38:38.956Z,3.60
2023-04-03T07:41:06.688Z,3.70
2023-04-03T07:46:03.300Z,4.10
2023-04-03T07:48:30.465Z,4.10
2023-04-03T07:51:02.529Z,4.20
2023-04-03T07:53:30.158Z,4.10
2023-04-03T07:56:00.057Z,4.10
2023-04-03T07:58:27.666Z,4.00
2023-04-03T08:06:26.201Z,4.60
2023-04-03T08:11:27.738Z,4.40
2023-04-03T08:13:56.169Z,4.50
2023-04-03T08:16:27.798Z,4.80
2023-04-03T08:18:55.976Z,5.00
2023-04-03T08:21:23.083Z,5.30
2023-04-03T08:23:53.155Z,5.00
2023-04-03T08:26:22.536Z,5.10
2023-04-03T08:28:50.341Z,5.40
2023-04-03T08:31:20.824Z,5.40
2023-04-03T08:33:48.277Z,5.20
2023-04-03T08:36:28.689Z,5.50
2023-04-03T08:38:57.609Z,5.20
2023-04-03T08:41:41.242Z,4.90
2023-04-03T08:44:50.764Z,5.10
2023-04-03T08:47:43.944Z,5.40
2023-04-03T08:50:23.389Z,6.60
2023-04-03T08:52:57.802Z,6.30
2023-04-03T08:55:44.907Z,6.10
2023-04-03T08:58:33.865Z,5.70
2023-04-03T09:01:21.816Z,5.20
2023-04-03T09:03:49.245Z,4.90
2023-04-03T09:06:33.726Z,4.80
2023-04-03T09:09:19.715Z,5.10
2023-04-03T09:12:20.723Z,5.30
2023-04-03T09:15:31.246Z,5.50
2023-04-03T09:18:18.151Z,5.70
2023-04-03T09:21:15.747Z,6.00
2023-04-03T09:23:52.957Z,5.80
2023-04-03T09:26:27.407Z,5.60
2023-04-03T09:29:01.591Z,5.50
2023-04-03T09:31:44.728Z,5.30
2023-04-03T09:34:37.497Z,4.90
2023-04-03T09:37:09.483Z,5.00
2023-04-03T09:39:56.987Z,5.10
2023-04-03T09:42:26.339Z,5.70
2023-04-03T09:45:26.074Z,6.30
2023-04-03T09:48:16.580Z,6.80
2023-04-03T09:51:00.059Z,6.00
2023-04-03T09:53:46.024Z,5.70
2023-04-03T09:56:22.538Z,5.60
2023-04-03T09:59:04.783Z,5.00
2023-04-03T10:01:39.354Z,4.50
2023-04-03T10:04:20.691Z,4.50
2023-04-03T10:06:55.983Z,4.30
2023-04-03T10:09:30.655Z,4.20
2023-04-03T10:12:05.842Z,4.30
2023-04-03T10:14:40.995Z,4.50
2023-04-03T10:17:27.145Z,4.80
2023-04-03T10:20:29.387Z,5.10
2023-04-03T10:23:52.366Z,5.70
2023-04-03T10:27:01.135Z,5.70
2023-04-03T10:29:56.590Z,5.60
2023-04-03T10:32:49.921Z,5.40
2023-04-03T10:35:53.334Z,5.90
2023-04-03T10:39:11.010Z,6.40
2023-04-03T10:42:13.204Z,7.50
2023-04-03T10:45:23.080Z,9.30
2023-04-03T10:48:41.711Z,8.70
2023-04-03T10:51:40.682Z,6.80
2023-04-03T10:54:25.951Z,6.50
2023-04-03T10:57:12.527Z,6.30
2023-04-03T10:59:52.830Z,6.60
2023-04-03T11:02:43.149Z,6.40
2023-04-03T11:05:40.617Z,7.10
2023-04-03T11:08:32.122Z,9.40
2023-04-03T11:11:26.600Z,11.40
2023-04-03T11:14:02.408Z,12.00
2023-04-03T11:16:43.697Z,10.40
2023-04-03T11:20:01.462Z,8.10
2023-04-03T11:22:38.399Z,6.90
2023-04-03T11:25:24.296Z,7.00
2023-04-03T11:28:07.371Z,9.50
2023-04-03T11:31:27.627Z,8.60
2023-04-03T11:34:49.828Z,7.30
2023-04-03T11:37:45.736Z,6.60
2023-04-03T11:40:33.246Z,6.40
2023-04-03T11:43:00.343Z,8.30
2023-04-03T11:45:52.690Z,10.50
2023-04-03T11:50:52.870Z,10.60
2023-04-03T11:53:52.543Z,10.20
2023-04-03T11:56:26.595Z,9.40
2023-04-03T11:59:12.518Z,8.30
2023-04-03T12:01:59.863Z,7.20
2023-04-03T12:04:29.882Z,6.50
2023-04-03T12:07:17.787Z,6.90
2023-04-03T12:09:44.653Z,7.30
2023-04-03T12:12:39.504Z,9.40
2023-04-03T12:15:49.108Z,10.50
2023-04-03T12:18:54.818Z,11.00
2023-04-03T12:21:47.754Z,11.20
2023-04-03T12:24:17.631Z,12.00
2023-04-03T12:27:35.118Z,12.30
2023-04-03T12:30:05.034Z,12.30
2023-04-03T12:32:41.686Z,13.20
2023-04-03T12:35:43.951Z,13.20
2023-04-03T12:38:42.980Z,12.00
2023-04-03T12:41:49.581Z,12.70
2023-04-03T12:44:54.920Z,10.30
2023-04-03T12:47:39.023Z,9.10
2023-04-03T12:50:24.831Z,9.20
2023-04-03T12:53:02.608Z,8.50
2023-04-03T12:55:29.669Z,7.80
2023-04-03T12:57:56.775Z,7.20
2023-04-03T13:00:35.107Z,7.30
2023-04-03T13:03:22.837Z,9.30
2023-04-03T13:05:50.397Z,10.80
2023-04-03T13:08:20.075Z,12.50
2023-04-03T13:11:14.181Z,12.90
2023-04-03T13:13:41.891Z,11.50
2023-04-03T13:16:12.530Z,10.40
2023-04-03T13:18:40.525Z,11.10
2023-04-03T13:21:16.628Z,10.30
2023-04-03T13:23:55.226Z,10.40
2023-04-03T13:26:33.078Z,11.50
2023-04-03T13:29:29.868Z,12.50
2023-04-03T13:32:01.793Z,11.70
2023-04-03T13:34:39.518Z,11.00
2023-04-03T13:39:39.807Z,10.70
2023-04-03T13:42:32.209Z,9.10
2023-04-03T13:45:24.918Z,8.40
2023-04-03T13:48:22.127Z,9.50
2023-04-03T13:51:27.138Z,10.50
2023-04-03T13:54:00.380Z,11.70
2023-04-03T13:56:40.093Z,12.40
2023-04-03T13:59:13.251Z,13.10
2023-04-03T14:01:54.809Z,10.80
2023-04-03T14:04:57.179Z,8.60
2023-04-03T14:07:25.454Z,8.10
2023-04-03T14:09:53.954Z,9.20
2023-04-03T14:12:41.247Z,10.20
2023-04-03T14:15:28.321Z,11.30
2023-04-03T14:20:28.688Z,13.00
2023-04-03T14:22:56.118Z,12.00
2023-04-03T14:25:24.863Z,10.30
2023-04-03T14:27:54.684Z,9.30
2023-04-03T14:30:34.347Z,7.80
2023-04-03T14:35:30.613Z,7.30
2023-04-03T14:40:28.426Z,10.10
2023-04-03T14:42:56.331Z,11.60
2023-04-03T14:45:24.844Z,12.30
2023-04-03T14:47:56.767Z,11.70
2023-04-03T14:50:28.302Z,11.60
2023-04-03T14:52:59.745Z,10.80
2023-04-03T14:55:28.515Z,9.80
2023-04-03T14:57:55.761Z,8.80
2023-04-03T15:00:24.107Z,9.40
2023-04-03T15:02:51.554Z,9.60
2023-04-03T15:05:20.329Z,10.10
2023-04-03T15:08:05.452Z,10.20
2023-04-03T15:10:33.804Z,10.60
2023-04-03T15:15:31.225Z,11.60
2023-04-03T15:20:31.286Z,9.40
2023-04-03T15:23:01.451Z,8.50
2023-04-03T15:25:29.751Z,9.30
2023-04-03T15:27:58.249Z,8.60
2023-04-03T15:30:25.520Z,8.00
2023-04-03T15:32:54.123Z,8.10
2023-04-03T15:37:49.151Z,9.70
2023-04-03T15:42:43.997Z,9.30
2023-04-03T15:47:39.867Z,7.40
2023-04-03T15:50:08.684Z,6.80
2023-04-03T15:52:36.961Z,6.50
2023-04-03T15:55:05.556Z,6.40
2023-04-03T16:00:06.923Z,6.30
2023-04-03T16:05:03.673Z,6.50
2023-04-03T16:07:30.775Z,6.60
2023-04-03T16:09:58.026Z,6.60
2023-04-03T16:12:25.195Z,6.30
2023-04-03T16:14:52.631Z,6.30
2023-04-03T16:17:19.596Z,6.20
2023-04-03T16:19:46.656Z,6.10
2023-04-03T16:22:13.888Z,5.80
2023-04-03T16:24:41.144Z,5.70
2023-04-03T16:29:35.542Z,5.40
2023-04-03T16:32:03.631Z,5.30
2023-04-03T16:39:28.044Z,5.10
2023-04-03T16:41:55.224Z,5.10
2023-04-03T16:44:22.904Z,5.00
2023-04-03T16:49:17.400Z,5.00
2023-04-03T16:51:44.662Z,4.90
2023-04-03T16:54:14.338Z,4.90
2023-04-03T16:56:41.614Z,4.90
2023-04-03T16:59:09.028Z,4.80
2023-04-03T17:04:03.547Z,4.60
2023-04-03T17:06:30.684Z,4.60
2023-04-03T17:11:29.831Z,4.50
2023-04-03T17:13:56.905Z,4.50
2023-04-03T17:16:25.979Z,4.40
2023-04-03T17:18:54.799Z,4.30
2023-04-03T17:23:58.381Z,4.20
2023-04-03T17:26:27.373Z,4.10
2023-04-03T17:28:55.032Z,4.10
2023-04-03T17:33:49.814Z,4.00
2023-04-03T17:41:11.835Z,3.90
2023-04-03T17:43:38.830Z,3.80
2023-04-03T17:46:10.119Z,3.80
2023-04-03T17:48:40.829Z,3.70
2023-04-03T17:51:16.115Z,3.70
2023-04-03T17:53:44.470Z,3.60
2023-04-03T17:56:23.236Z,3.50
2023-04-03T17:58:51.761Z,3.50
2023-04-03T18:01:30.938Z,3.50
2023-04-03T18:04:04.288Z,3.40
2023-04-03T18:06:47.881Z,3.40
2023-04-03T18:09:21.516Z,3.40
2023-04-03T18:11:49.715Z,3.40
2023-04-03T18:14:23.916Z,3.40
2023-04-03T18:19:23.502Z,3.30
2023-04-03T18:21:56.709Z,3.20
2023-04-03T18:24:26.073Z,3.20
2023-04-03T18:27:03.334Z,3.10
2023-04-03T18:29:36.255Z,3.10
2023-04-03T18:32:04.436Z,3.00
2023-04-03T18:34:32.538Z,3.00
2023-04-03T18:37:00.325Z,3.00
2023-04-03T18:41:58.330Z,2.90
2023-04-03T18:44:27.727Z,2.90
2023-04-03T18:46:56.577Z,2.90
2023-04-03T18:49:23.791Z,2.80
2023-04-03T18:54:18.295Z,2.80
2023-04-03T18:56:45.311Z,2.70
2023-04-03T19:01:41.269Z,2.70
2023-04-03T19:04:08.623Z,2.70
2023-04-03T19:06:37.543Z,2.60
2023-04-03T19:09:06.952Z,2.60
2023-04-03T19:11:34.808Z,2.60
2023-04-03T19:14:14.279Z,2.60
2023-04-03T19:19:12.008Z,2.50
2023-04-03T19:24:13.740Z,2.50
2023-04-03T19:26:42.718Z,2.40
2023-04-03T19:29:10.411Z,2.40
2023-04-03T19:31:39.964Z,2.40
2023-04-03T19:34:08.380Z,2.30
2023-04-03T19:36:37.551Z,2.30
2023-04-03T19:39:06.123Z,2.30
2023-04-03T19:41:36.906Z,2.20
2023-04-03T19:44:07.144Z,2.20
2023-04-03T19:46:36.125Z,2.10
2023-04-03T19:49:04.576Z,2.10
2023-04-03T19:51:31.668Z,2.10
2023-04-03T19:53:58.741Z,2.10
2023-04-03T19:56:27.321Z,2.00
2023-04-03T19:58:54.834Z,2.00
2023-04-03T20:01:24.646Z,1.90
2023-04-03T20:03:52.386Z,1.90
2023-04-03T20:08:49.171Z,1.80
2023-04-03T20:11:16.323Z,1.90
2023-04-03T20:13:43.383Z,1.80
2023-04-03T20:16:10.627Z,1.80
2023-04-03T20:21:07.541Z,1.70
2023-04-03T20:23:37.057Z,1.70
2023-04-03T20:26:10.918Z,1.70
2023-04-03T20:28:42.807Z,1.70
2023-04-03T20:33:38.942Z,1.60
2023-04-03T20:36:06.255Z,1.50
2023-04-03T20:38:36.988Z,1.50
2023-04-03T20:41:05.238Z,1.50
2023-04-03T20:46:02.122Z,1.40
2023-04-03T20:48:31.279Z,1.30
2023-04-03T20:50:59.036Z,1.30
2023-04-03T20:53:27.037Z,1.30
2023-04-03T20:56:01.385Z,1.20
2023-04-03T20:58:33.008Z,1.20
2023-04-03T21:01:01.017Z,1.30
2023-04-03T21:03:30.555Z,1.30
2023-04-03T21:06:00.220Z,1.30
2023-04-03T21:09:42.814Z,1.30
2023-04-03T21:13:25.505Z,1.40
2023-04-03T21:15:54.668Z,1.30
2023-04-03T21:18:57.398Z,1.30
2023-04-03T21:21:26.474Z,1.40
2023-04-03T21:23:55.428Z,1.30
2023-04-03T21:26:25.961Z,1.40
2023-04-03T21:28:54.107Z,1.40
2023-04-03T21:31:22.129Z,1.50
2023-04-03T21:33:50.319Z,1.40
2023-04-03T21:36:17.360Z,1.40
2023-04-03T21:38:45.858Z,1.40
2023-04-03T21:41:12.817Z,1.30
2023-04-03T21:48:36.676Z,1.30
2023-04-03T21:51:07.546Z,1.30
2023-04-03T21:53:35.413Z,1.30
2023-04-03T21:58:34.130Z,1.30
2023-04-03T22:01:16.186Z,1.40
2023-04-03T22:03:45.797Z,1.40
2023-04-03T22:06:16.178Z,1.30
2023-04-03T22:08:44.156Z,1.30
2023-04-03T22:11:14.537Z,1.30
2023-04-03T22:16:12.637Z,1.30
2023-04-03T22:21:10.175Z,1.30
2023-04-03T22:23:37.828Z,1.30
2023-04-03T22:26:11.703Z,1.30
2023-04-03T22:28:46.394Z,1.30
2023-04-03T22:31:15.951Z,1.30
2023-04-03T22:33:44.842Z,1.30
2023-04-03T22:36:13.971Z,1.30
2023-04-03T22:41:10.848Z,1.30
2023-04-03T22:43:38.462Z,1.20
2023-04-03T22:46:08.707Z,1.20
2023-04-03T22:48:38.439Z,1.20
2023-04-03T22:51:09.642Z,1.10
2023-04-03T22:53:37.856Z,1.10
2023-04-03T22:56:13.880Z,1.10
2023-04-03T23:01:13.019Z,1.10
2023-04-03T23:03:42.601Z,1.10
2023-04-03T23:06:10.795Z,1.10
2023-04-03T23:13:34.710Z,1.00
2023-04-03T23:16:03.164Z,1.00
2023-04-03T23:18:32.446Z,-1.30
2023-04-03T23:21:01.050Z,0.90
2023-04-03T23:26:01.873Z,0.90
2023-04-03T23:28:29.893Z,0.90
2023-04-03T23:31:03.796Z,0.80
2023-04-03T23:33:32.664Z,0.80
2023-04-03T23:36:06.642Z,0.70
2023-04-03T23:38:34.786Z,0.60
2023-04-03T23:41:02.103Z,0.40
2023-04-03T23:45:58.406Z,0.30
2023-04-03T23:48:25.440Z,0.10
2023-04-03T23:50:52.424Z,0.00
2023-04-03T23:53:19.385Z,-0.20
2023-04-03T23:55:46.445Z,-0.20
2023-04-03T23:58:13.447Z,-0.40
